Time;durP1;ratioP1;P1;durP2;ratioP2;P2;SDS_P1;SDS_P2;PMS_P1;PMS_P2;Temp;Humidity;BMP_temperature;BMP_pressure;BME280_temperature;BME280_humidity;BME280_pressure;Samples;Min_cycle;Max_cycle;Signal;HPM_P1;HPM_P2
2023/10/08 00:01:50;;;;;;;22.77;5.68;;;19.40;79.30;;;;;;9165658;19;20021;-74
2023/10/08 00:05:01;;;;;;;25.73;6.05;;;19.70;80.90;;;;;;9166526;19;20107;-72
2023/10/08 00:08:07;;;;;;;25.08;6.70;;;19.40;79.50;;;;;;9164015;19;20014;-71
2023/10/08 00:11:15;;;;;;;23.90;6.72;;;19.30;79.40;;;;;;9164505;19;20018;-74
2023/10/08 00:14:24;;;;;;;28.55;5.68;;;19.40;79.40;;;;;;9166723;19;20082;-73
2023/10/08 00:17:31;;;;;;;27.85;6.18;;;19.30;79.40;;;;;;9164646;19;20365;-73
2023/10/08 00:20:54;;;;;;;29.05;5.65;;;19.40;79.50;;;;;;9164427;19;20010;-72
2023/10/08 00:24:05;;;;;;;26.48;7.20;;;19.40;79.60;;;;;;9167234;19;20052;-74
2023/10/08 00:27:14;;;;;;;24.70;6.00;;;19.40;80.20;;;;;;9164163;19;20010;-75
2023/10/08 00:30:22;;;;;;;32.42;6.80;;;19.40;79.60;;;;;;9164652;19;20010;-72
2023/10/08 00:33:29;;;;;;;23.85;7.03;;;19.40;79.70;;;;;;9163376;19;20494;-73
2023/10/08 00:36:41;;;;;;;30.60;7.22;;;19.40;79.70;;;;;;9159319;19;20481;-68
2023/10/08 00:39:47;;;;;;;29.33;7.57;;;19.40;79.80;;;;;;9167353;19;20448;-73
2023/10/08 00:42:56;;;;;;;25.50;7.10;;;19.30;79.80;;;;;;9166940;19;20022;-74
2023/10/08 00:46:16;;;;;;;24.77;7.22;;;19.30;79.80;;;;;;9165798;19;20465;-72
2023/10/08 00:49:48;;;;;;;24.50;6.72;;;19.30;79.90;;;;;;9165929;19;20018;-74
2023/10/08 00:53:01;;;;;;;25.38;7.68;;;19.40;80.00;;;;;;9161698;19;20368;-74
2023/10/08 00:56:18;;;;;;;25.40;7.40;;;19.30;80.10;;;;;;9163695;19;20011;-71
2023/10/08 00:59:24;;;;;;;25.65;8.18;;;19.30;80.20;;;;;;9166234;19;20102;-73
2023/10/08 01:02:46;;;;;;;24.92;7.28;;;;;;;;;;9165160;19;20025;-73
2023/10/08 01:05:52;;;;;;;37.45;8.40;;;19.30;79.60;;;;;;9163715;19;20622;-71
2023/10/08 01:09:17;;;;;;;27.40;7.70;;;19.30;80.20;;;;;;9164635;19;20014;-75
2023/10/08 01:12:27;;;;;;;12.07;4.13;;;19.30;80.60;;;;;;9163653;19;20014;-71
2023/10/08 01:15:35;;;;;;;6.10;2.33;;;19.30;80.20;;;;;;9162014;19;20010;-73
2023/10/08 01:18:43;;;;;;;6.22;1.50;;;19.20;80.00;;;;;;9162575;19;20018;-72
2023/10/08 01:21:51;;;;;;;1.10;0.90;;;19.10;79.80;;;;;;9163568;19;20390;-70
2023/10/08 01:25:01;;;;;;;1.67;1.13;;;19.00;79.70;;;;;;9167027;19;20018;-74
2023/10/08 01:28:14;;;;;;;4.80;1.63;;;18.90;79.50;;;;;;9168740;19;20014;-71
2023/10/08 01:31:20;;;;;;;3.10;1.27;;;18.80;79.40;;;;;;9166381;19;20026;-75
2023/10/08 01:34:35;;;;;;;2.55;1.80;;;18.70;79.30;;;;;;9157221;19;20018;-73
2023/10/08 01:37:40;;;;;;;2.42;0.98;;;18.50;79.20;;;;;;9152141;19;20023;-71
2023/10/08 01:40:51;;;;;;;2.05;0.70;;;18.40;79.10;;;;;;9155840;19;20029;-74
2023/10/08 01:43:58;;;;;;;2.05;0.88;;;18.20;78.90;;;;;;9157283;19;20019;-69
2023/10/08 01:47:06;;;;;;;3.03;1.02;;;18.10;78.90;;;;;;9160145;19;20038;-72
2023/10/08 01:50:21;;;;;;;2.00;0.85;;;18.00;79.00;;;;;;9173443;19;20607;-74
2023/10/08 01:53:28;;;;;;;2.15;1.27;;;17.90;79.00;;;;;;9169848;19;20022;-74
2023/10/08 01:56:41;;;;;;;4.28;1.00;;;17.80;79.00;;;;;;9173184;19;20899;-69
2023/10/08 01:59:48;;;;;;;1.48;1.23;;;17.70;78.90;;;;;;9168686;19;20018;-72
2023/10/08 02:02:58;;;;;;;4.22;1.60;;;17.60;78.90;;;;;;9173451;19;20359;-71
2023/10/08 02:06:08;;;;;;;1.63;1.17;;;17.50;79.00;;;;;;9173914;19;20014;-71
2023/10/08 02:09:16;;;;;;;2.75;1.30;;;17.50;79.00;;;;;;9172035;19;20029;-71
2023/10/08 02:12:25;;;;;;;1.85;1.35;;;17.30;79.10;;;;;;9171231;19;20400;-72
2023/10/08 02:15:32;;;;;;;2.47;1.35;;;17.30;79.20;;;;;;9171259;19;20023;-74
2023/10/08 02:18:38;;;;;;;4.03;1.20;;;17.20;79.10;;;;;;9171523;19;20467;-71
2023/10/08 02:21:46;;;;;;;2.15;0.90;;;17.10;79.10;;;;;;9170329;19;20472;-72
2023/10/08 02:24:53;;;;;;;8.90;1.10;;;17.00;79.00;;;;;;9170435;19;20010;-71
2023/10/08 02:28:04;;;;;;;2.10;1.02;;;16.80;78.90;;;;;;9171709;19;20015;-71
2023/10/08 02:31:10;;;;;;;2.85;1.15;;;16.70;79.00;;;;;;9171791;19;20745;-72
2023/10/08 02:34:19;;;;;;;5.28;0.95;;;16.60;79.00;;;;;;9167304;19;20333;-71
2023/10/08 02:37:24;;;;;;;1.15;1.05;;;16.60;79.10;;;;;;9167200;19;20041;-71
2023/10/08 02:40:32;;;;;;;1.27;1.10;;;16.50;79.20;;;;;;9170208;19;20018;-73
2023/10/08 02:43:42;;;;;;;1.80;1.08;;;16.40;79.20;;;;;;9169495;19;20091;-71
2023/10/08 02:46:51;;;;;;;1.88;1.30;;;16.30;79.20;;;;;;9171287;19;20372;-71
2023/10/08 02:49:58;;;;;;;1.92;1.33;;;16.30;79.90;;;;;;9170343;19;20022;-73
2023/10/08 02:53:10;;;;;;;4.00;1.10;;;16.30;79.30;;;;;;9168102;19;20730;-72
2023/10/08 02:56:16;;;;;;;1.17;1.00;;;16.20;79.30;;;;;;9168128;19;20113;-72
2023/10/08 02:59:39;;;;;;;2.33;1.25;;;16.20;79.30;;;;;;9168551;19;20094;-71
2023/10/08 03:02:46;;;;;;;2.13;1.35;;;16.20;79.40;;;;;;9169232;19;20015;-72
2023/10/08 03:05:56;;;;;;;1.38;1.25;;;16.10;79.40;;;;;;9168276;19;20010;-73
2023/10/08 03:09:04;;;;;;;6.10;1.40;;;16.10;79.50;;;;;;9170226;19;20067;-74
2023/10/08 03:12:11;;;;;;;3.15;1.50;;;16.00;79.50;;;;;;9168128;19;20082;-73
2023/10/08 03:15:28;;;;;;;1.65;1.55;;;16.00;79.50;;;;;;9165923;19;20018;-72
2023/10/08 03:18:42;;;;;;;2.50;1.52;;;16.00;79.70;;;;;;9167890;19;20808;-68
2023/10/08 03:21:51;;;;;;;4.30;1.90;;;16.00;79.70;;;;;;9167919;19;20093;-69
2023/10/08 03:25:14;;;;;;;2.13;1.80;;;15.90;79.70;;;;;;9170384;19;20494;-73
2023/10/08 03:28:19;;;;;;;2.50;1.48;;;15.90;79.70;;;;;;9169818;19;20743;-71
2023/10/08 03:31:49;;;;;;;2.30;1.90;;;15.90;79.80;;;;;;9168025;19;20045;-73
2023/10/08 03:34:59;;;;;;;3.17;1.98;;;15.80;79.80;;;;;;9167331;19;20021;-73
2023/10/08 03:41:28;;;;;;;2.97;1.95;;;15.80;79.90;;;;;;9166271;19;20803;-73
2023/10/08 03:44:37;;;;;;;2.17;1.98;;;15.80;80.00;;;;;;9167057;19;20026;-73
2023/10/08 03:47:46;;;;;;;6.93;1.85;;;15.80;80.10;;;;;;9168511;19;20018;-74
2023/10/08 03:50:56;;;;;;;4.13;2.20;;;15.80;80.00;;;;;;9166065;19;20017;-72
2023/10/08 03:54:15;;;;;;;1.70;1.58;;;15.70;80.00;;;;;;9165110;19;20010;-71
2023/10/08 03:57:25;;;;;;;3.85;2.05;;;15.70;80.00;;;;;;9168743;19;20015;-75
2023/10/08 04:00:40;;;;;;;2.80;2.25;;;15.70;80.10;;;;;;9167651;19;20029;-68
2023/10/08 04:04:00;;;;;;;2.20;2.00;;;15.70;80.10;;;;;;9163365;19;20014;-71
2023/10/08 04:11:07;;;;;;;2.15;1.88;;;15.70;80.20;;;;;;9159012;19;20415;-73
2023/10/08 04:14:03;;;;;;;3.20;1.98;;;15.70;80.20;;;;;;9159259;19;20384;-73
2023/10/08 04:17:10;;;;;;;5.38;2.40;;;15.60;80.20;;;;;;9161422;19;20014;-73
2023/10/08 04:23:44;;;;;;;3.53;2.58;;;15.60;80.40;;;;;;9166317;19;20021;-70
2023/10/08 04:26:50;;;;;;;4.13;2.38;;;15.60;80.40;;;;;;9167037;19;20018;-73
2023/10/08 04:29:58;;;;;;;2.95;2.30;;;15.60;80.40;;;;;;9167182;19;20010;-72
2023/10/08 04:33:06;;;;;;;4.18;2.63;;;15.60;80.40;;;;;;9169529;19;20015;-74
2023/10/08 04:36:20;;;;;;;3.97;2.63;;;15.60;80.50;;;;;;9163730;19;20022;-75
2023/10/08 04:39:31;;;;;;;2.75;2.28;;;15.60;80.60;;;;;;9168384;19;20098;-69
2023/10/08 04:42:39;;;;;;;3.75;2.72;;;15.60;80.50;;;;;;9165982;19;20022;-71
2023/10/08 04:45:47;;;;;;;3.45;2.38;;;15.60;80.50;;;;;;9165202;19;20412;-71
2023/10/08 04:48:55;;;;;;;2.75;2.25;;;15.60;80.50;;;;;;9163952;19;20886;-72
2023/10/08 04:52:09;;;;;;;3.80;1.90;;;15.60;80.50;;;;;;9169158;19;20785;-73
2023/10/08 04:55:20;;;;;;;3.97;2.17;;;15.60;80.60;;;;;;9163365;19;20483;-68
2023/10/08 04:58:33;;;;;;;3.03;2.20;;;15.60;80.60;;;;;;9164432;19;20126;-69
2023/10/08 05:01:47;;;;;;;3.40;2.40;;;15.60;80.60;;;;;;9163309;19;20022;-73
2023/10/08 05:05:21;;;;;;;2.03;1.70;;;15.60;80.60;;;;;;9164266;19;20052;-70
2023/10/08 05:08:33;;;;;;;2.97;2.05;;;15.60;80.60;;;;;;9165877;19;20019;-74
2023/10/08 05:12:08;;;;;;;3.10;2.10;;;15.50;80.60;;;;;;9166943;19;20025;-74
2023/10/08 05:15:33;;;;;;;3.35;2.35;;;15.50;80.60;;;;;;9164050;19;20021;-74
2023/10/08 05:22:17;;;;;;;4.90;2.45;;;15.50;80.70;;;;;;9162793;19;20010;-70
2023/10/08 05:25:35;;;;;;;2.95;2.20;;;15.50;80.80;;;;;;9163260;19;20010;-69
2023/10/08 05:29:00;;;;;;;3.13;2.30;;;15.50;80.80;;;;;;9164316;19;20033;-73
2023/10/08 05:35:48;;;;;;;4.25;2.10;;;15.50;80.70;;;;;;9160863;19;20018;-73
2023/10/08 05:39:19;;;;;;;5.18;3.22;;;15.50;80.70;;;;;;9160806;19;20019;-72
2023/10/08 05:42:31;;;;;;;4.57;2.60;;;15.50;80.80;;;;;;9158275;19;20451;-73
2023/10/08 05:45:37;;;;;;;7.07;2.90;;;15.40;80.80;;;;;;9160399;19;20022;-71
2023/10/08 05:48:46;;;;;;;5.30;2.78;;;15.50;80.90;;;;;;9163555;19;20018;-74
2023/10/08 05:52:13;;;;;;;3.95;2.88;;;15.40;80.90;;;;;;9162801;19;20018;-69
2023/10/08 05:55:25;;;;;;;4.70;3.20;;;15.40;80.90;;;;;;9160479;19;20373;-72
2023/10/08 05:58:45;;;;;;;5.65;3.53;;;15.40;80.90;;;;;;9163384;19;20022;-73
2023/10/08 06:02:05;;;;;;;6.63;3.38;;;15.40;80.90;;;;;;9160754;19;20011;-71
2023/10/08 06:05:20;;;;;;;4.10;2.80;;;15.40;80.90;;;;;;9160298;19;20033;-73
2023/10/08 06:11:56;;;;;;;4.68;3.50;;;15.40;81.00;;;;;;9160787;19;20019;-72
2023/10/08 06:15:12;;;;;;;7.55;3.70;;;15.40;81.00;;;;;;9160342;19;20019;-73
2023/10/08 06:18:15;;;;;;;5.70;3.47;;;15.40;81.10;;;;;;9163394;19;20033;-74
2023/10/08 06:21:23;;;;;;;4.95;3.40;;;15.40;81.10;;;;;;9164122;19;20368;-70
2023/10/08 06:24:28;;;;;;;8.00;3.78;;;15.40;81.10;;;;;;9161303;19;20037;-74
2023/10/08 06:27:36;;;;;;;6.05;3.20;;;15.40;81.20;;;;;;9163011;19;20022;-74
2023/10/08 06:30:44;;;;;;;6.82;3.53;;;15.40;81.10;;;;;;9162851;19;20341;-72
2023/10/08 06:33:53;;;;;;;4.45;3.13;;;15.40;81.20;;;;;;9164929;19;20014;-71
2023/10/08 06:37:01;;;;;;;7.57;3.67;;;15.40;81.10;;;;;;9161838;19;20442;-72
2023/10/08 06:40:40;;;;;;;4.65;3.40;;;15.40;81.10;;;;;;9170138;19;20356;-72
2023/10/08 06:43:37;;;;;;;6.75;3.30;;;15.40;81.10;;;;;;9170845;19;20018;-69
2023/10/08 06:46:48;;;;;;;8.07;3.30;;;15.40;81.10;;;;;;9169770;19;20518;-72
2023/10/08 06:49:54;;;;;;;11.55;3.40;;;15.40;81.20;;;;;;9169409;19;20010;-70
2023/10/08 06:53:06;;;;;;;8.60;2.95;;;15.40;81.20;;;;;;9171706;19;20014;-73
2023/10/08 06:56:12;;;;;;;7.18;3.45;;;15.40;81.80;;;;;;9167313;19;20350;-71
2023/10/08 06:59:22;;;;;;;8.00;3.25;;;15.40;81.10;;;;;;9169457;19;20010;-73
2023/10/08 07:02:30;;;;;;;7.85;3.22;;;15.40;81.20;;;;;;9170140;19;20014;-70
2023/10/08 07:05:44;;;;;;;5.20;3.28;;;15.30;81.20;;;;;;9168349;19;20015;-73
2023/10/08 07:08:54;;;;;;;12.80;3.88;;;15.30;81.10;;;;;;9169606;19;20022;-73
2023/10/08 07:12:05;;;;;;;7.95;3.00;;;15.30;81.20;;;;;;9168195;19;20018;-69
2023/10/08 07:15:14;;;;;;;6.03;3.35;;;15.30;81.20;;;;;;9169220;19;20022;-71
2023/10/08 07:18:25;;;;;;;7.10;3.20;;;15.30;81.20;;;;;;9170291;19;20015;-73
2023/10/08 07:21:44;;;;;;;7.57;3.40;;;15.30;81.30;;;;;;9166036;19;20027;-71
2023/10/08 07:24:52;;;;;;;8.73;3.50;;;15.30;81.20;;;;;;9166317;19;20025;-74
2023/10/08 07:27:57;;;;;;;10.02;3.33;;;15.30;81.30;;;;;;9163707;19;20032;-72
2023/10/08 07:31:05;;;;;;;9.55;3.20;;;15.30;81.30;;;;;;9161739;19;20346;-74
2023/10/08 07:34:18;;;;;;;7.70;3.08;;;15.30;81.30;;;;;;9165806;19;20022;-74
2023/10/08 07:37:26;;;;;;;6.13;3.22;;;15.30;81.30;;;;;;9157325;19;20033;-71
2023/10/08 07:40:37;;;;;;;6.47;3.03;;;15.30;81.30;;;;;;9161601;19;20044;-72
2023/10/08 07:43:46;;;;;;;5.38;2.95;;;15.30;81.30;;;;;;9169179;19;20827;-68
2023/10/08 07:46:54;;;;;;;8.23;3.00;;;15.30;81.30;;;;;;9166013;19;20021;-72
2023/10/08 07:50:11;;;;;;;7.68;4.32;;;15.30;81.30;;;;;;9165489;19;20022;-74
2023/10/08 07:53:20;;;;;;;12.55;3.30;;;15.30;81.40;;;;;;9162167;19;20015;-71
2023/10/08 07:56:30;;;;;;;8.15;3.42;;;15.30;81.30;;;;;;9168744;19;20825;-73
2023/10/08 07:59:38;;;;;;;8.73;3.45;;;15.30;81.30;;;;;;9170817;19;20038;-73
2023/10/08 08:02:45;;;;;;;4.47;2.60;;;15.30;81.40;;;;;;9167055;19;20017;-72
2023/10/08 08:05:55;;;;;;;7.95;3.05;;;15.30;81.30;;;;;;9168224;19;20364;-72
2023/10/08 08:09:04;;;;;;;7.13;3.15;;;15.30;81.40;;;;;;9161335;19;20014;-71
2023/10/08 08:12:15;;;;;;;6.88;3.20;;;15.30;81.40;;;;;;9160588;19;20022;-69
2023/10/08 08:15:22;;;;;;;7.03;2.67;;;15.40;81.40;;;;;;9163102;19;20015;-74
2023/10/08 08:18:32;;;;;;;4.95;2.58;;;15.30;81.30;;;;;;9162067;19;20018;-73
2023/10/08 08:21:45;;;;;;;7.63;3.13;;;15.40;81.40;;;;;;9162368;19;20023;-74
2023/10/08 08:24:53;;;;;;;8.18;2.75;;;15.40;81.40;;;;;;9166195;19;20029;-73
2023/10/08 08:28:06;;;;;;;10.50;3.63;;;15.40;81.50;;;;;;9165931;19;20380;-73
2023/10/08 08:31:14;;;;;;;5.45;3.03;;;15.40;81.40;;;;;;9165179;19;20010;-72
2023/10/08 08:34:23;;;;;;;5.15;2.53;;;15.50;81.50;;;;;;9163303;19;20368;-70
2023/10/08 08:37:32;;;;;;;8.25;2.78;;;15.50;81.40;;;;;;9158876;19;20488;-74
2023/10/08 08:40:42;;;;;;;8.65;2.30;;;15.50;81.50;;;;;;9163097;19;20123;-74
2023/10/08 08:43:56;;;;;;;6.35;2.10;;;15.60;81.40;;;;;;9163421;19;20528;-74
2023/10/08 08:47:06;;;;;;;5.22;1.83;;;15.60;81.30;;;;;;9166076;19;20020;-73
2023/10/08 08:50:12;;;;;;;8.85;1.90;;;15.70;81.30;;;;;;9165414;19;20028;-70
2023/10/08 08:53:23;;;;;;;7.65;2.08;;;15.70;81.20;;;;;;9163550;19;20025;-75
2023/10/08 08:56:31;;;;;;;3.30;2.15;;;15.70;81.10;;;;;;9160932;19;20815;-74
2023/10/08 08:59:39;;;;;;;6.85;2.30;;;15.80;81.10;;;;;;9165457;19;20010;-73
2023/10/08 09:02:44;;;;;;;7.68;1.90;;;15.80;81.10;;;;;;9165379;19;20022;-73
2023/10/08 09:05:52;;;;;;;7.85;2.75;;;15.90;81.10;;;;;;9164985;19;20015;-71
2023/10/08 09:09:13;;;;;;;14.15;3.30;;;15.90;81.00;;;;;;9165322;19;20701;-75
2023/10/08 09:12:21;;;;;;;9.60;3.38;;;16.00;80.90;;;;;;9167543;19;20024;-74
2023/10/08 09:15:27;;;;;;;8.35;2.47;;;16.00;80.70;;;;;;9164635;19;20052;-72
2023/10/08 09:18:34;;;;;;;10.40;1.90;;;16.00;80.60;;;;;;9164691;19;20014;-74
2023/10/08 09:21:40;;;;;;;14.68;4.75;;;16.10;80.60;;;;;;9167648;19;20064;-72
2023/10/08 09:24:52;;;;;;;8.70;2.83;;;16.20;80.60;;;;;;9167134;19;20025;-75
2023/10/08 09:27:58;;;;;;;4.75;2.00;;;16.20;80.40;;;;;;9164690;19;20031;-76
2023/10/08 09:31:06;;;;;;;6.93;1.90;;;16.20;80.30;;;;;;9165438;19;20014;-75
2023/10/08 09:34:11;;;;;;;7.18;1.83;;;16.20;80.20;;;;;;9164012;19;20513;-75
2023/10/08 09:37:21;;;;;;;4.40;1.50;;;16.30;80.30;;;;;;9161326;19;20025;-76
2023/10/08 09:40:30;;;;;;;8.02;1.63;;;16.30;80.10;;;;;;9163150;19;20018;-76
2023/10/08 09:43:39;;;;;;;10.68;2.08;;;16.40;80.10;;;;;;9162592;19;20014;-71
2023/10/08 09:46:47;;;;;;;9.68;2.65;;;16.40;80.00;;;;;;9161577;19;20015;-72
2023/10/08 09:50:02;;;;;;;9.93;2.00;;;16.40;80.00;;;;;;9164702;19;20034;-72
2023/10/08 09:53:16;;;;;;;6.13;2.07;;;16.50;80.00;;;;;;9164843;19;20018;-74
2023/10/08 09:56:29;;;;;;;9.02;1.73;;;16.50;79.90;;;;;;9161932;19;20025;-76
2023/10/08 09:59:37;;;;;;;4.00;1.83;;;16.60;80.00;;;;;;9163842;19;20019;-72
2023/10/08 10:02:46;;;;;;;7.78;1.75;;;16.60;79.80;;;;;;9164023;19;20030;-75
2023/10/08 10:05:52;;;;;;;7.47;3.10;;;16.70;79.80;;;;;;9164796;19;20022;-77
2023/10/08 10:09:09;;;;;;;3.08;1.20;;;16.70;79.60;;;;;;9169055;19;20488;-72
2023/10/08 10:12:25;;;;;;;5.35;1.40;;;16.70;79.40;;;;;;9172122;19;20014;-71
2023/10/08 10:15:34;;;;;;;12.20;1.77;;;16.70;79.20;;;;;;9171656;19;20018;-72
2023/10/08 10:18:40;;;;;;;7.50;1.33;;;16.70;79.10;;;;;;9170006;19;20014;-75
2023/10/08 10:21:48;;;;;;;6.35;2.03;;;16.80;79.20;;;;;;9171140;19;20021;-75
2023/10/08 10:24:56;;;;;;;14.13;2.75;;;16.90;79.10;;;;;;9172063;19;20039;-75
2023/10/08 10:28:28;;;;;;;12.70;1.50;;;16.90;79.00;;;;;;9171767;19;20042;-73
2023/10/08 10:31:37;;;;;;;27.27;2.67;;;16.90;78.70;;;;;;9173596;19;20048;-69
2023/10/08 10:34:47;;;;;;;14.35;3.10;;;17.00;78.70;;;;;;9173820;19;20118;-72
2023/10/08 10:37:58;;;;;;;9.77;3.05;;;17.00;78.60;;;;;;9166603;19;20369;-76
2023/10/08 10:41:08;;;;;;;11.38;3.40;;;17.00;78.50;;;;;;9168157;19;20364;-76
2023/10/08 10:44:19;;;;;;;7.93;1.40;;;;;;;;;;9171794;19;20026;-75
2023/10/08 10:47:42;;;;;;;5.75;2.17;;;17.20;77.90;;;;;;9170704;19;20022;-75
2023/10/08 10:51:08;;;;;;;7.22;1.42;;;17.20;78.30;;;;;;9170433;19;20060;-71
2023/10/08 10:54:20;;;;;;;6.72;1.40;;;17.20;78.30;;;;;;9172359;19;20551;-78
2023/10/08 10:57:34;;;;;;;10.15;1.77;;;17.30;78.20;;;;;;9169443;19;20029;-76
2023/10/08 11:00:57;;;;;;;5.95;1.23;;;17.40;78.00;;;;;;9170069;19;20030;-76
2023/10/08 11:04:05;;;;;;;4.03;1.35;;;17.40;77.90;;;;;;9171512;19;20019;-77
2023/10/08 11:07:13;;;;;;;10.35;1.70;;;17.50;77.90;;;;;;9171428;19;20014;-75
2023/10/08 11:10:24;;;;;;;4.88;1.33;;;17.50;77.70;;;;;;9171769;19;20019;-76
2023/10/08 11:13:38;;;;;;;4.38;1.27;;;17.60;77.60;;;;;;9170163;19;20494;-73
2023/10/08 11:16:48;;;;;;;8.82;1.50;;;17.60;77.50;;;;;;9172142;19;20019;-76
2023/10/08 11:19:56;;;;;;;15.57;1.95;;;17.70;77.40;;;;;;9167668;19;20052;-76
2023/10/08 11:23:17;;;;;;;9.05;1.17;;;17.70;77.40;;;;;;9166175;19;20027;-77
2023/10/08 11:26:35;;;;;;;10.53;1.60;;;17.80;77.30;;;;;;9169530;19;20014;-71
2023/10/08 11:29:40;;;;;;;9.27;1.50;;;17.80;77.10;;;;;;9168933;19;20380;-76
2023/10/08 11:32:50;;;;;;;5.35;1.20;;;17.90;77.00;;;;;;9169655;19;20021;-76
2023/10/08 11:36:06;;;;;;;24.02;3.08;;;18.00;76.80;;;;;;9167572;19;20025;-72
2023/10/08 11:39:21;;;;;;;4.57;1.30;;;18.00;76.70;;;;;;9165386;19;20028;-73
2023/10/08 11:45:48;;;;;;;7.32;1.50;;;18.20;76.60;;;;;;9167029;19;20041;-71
2023/10/08 11:49:03;;;;;;;8.55;1.40;;;18.30;76.50;;;;;;9169625;19;20022;-74
2023/10/08 11:52:11;;;;;;;6.13;1.55;;;18.30;76.30;;;;;;9169215;19;20025;-68
2023/10/08 11:55:18;;;;;;;5.45;0.98;;;18.40;76.20;;;;;;9170627;19;20025;-70
2023/10/08 11:58:37;;;;;;;6.00;1.15;;;18.40;76.10;;;;;;9169238;19;20049;-65
2023/10/08 12:01:42;;;;;;;8.48;1.45;;;18.50;75.90;;;;;;9168043;19;20018;-67
2023/10/08 12:04:57;;;;;;;5.82;1.20;;;18.60;75.80;;;;;;9165581;19;20010;-66
2023/10/08 12:08:03;;;;;;;4.18;1.27;;;18.60;75.60;;;;;;9165954;19;20068;-65
2023/10/08 12:11:11;;;;;;;3.40;1.27;;;18.60;75.50;;;;;;9164337;19;20014;-65
2023/10/08 12:14:18;;;;;;;5.97;1.30;;;18.70;75.50;;;;;;9165899;19;20025;-65
2023/10/08 12:17:37;;;;;;;6.28;1.33;;;18.70;75.30;;;;;;9164621;19;20017;-69
2023/10/08 12:20:47;;;;;;;7.38;1.50;;;18.70;75.20;;;;;;9169731;19;20247;-67
2023/10/08 12:23:55;;;;;;;5.05;1.20;;;18.80;75.10;;;;;;9169642;19;20021;-65
2023/10/08 12:27:02;;;;;;;8.48;1.38;;;18.80;75.10;;;;;;9167248;19;20372;-70
2023/10/08 12:30:12;;;;;;;9.90;1.48;;;18.90;75.00;;;;;;9167015;19;20357;-68
2023/10/08 12:33:19;;;;;;;5.15;1.27;;;18.90;74.90;;;;;;9168572;19;20032;-66
2023/10/08 12:36:32;;;;;;;6.75;1.13;;;18.90;74.70;;;;;;9163266;19;21150;-70
2023/10/08 12:39:52;;;;;;;9.15;1.70;;;19.00;74.60;;;;;;9167957;19;20412;-64
2023/10/08 12:43:00;;;;;;;6.38;1.50;;;19.00;74.50;;;;;;9170023;19;20018;-65
2023/10/08 12:46:10;;;;;;;7.40;1.63;;;19.10;74.50;;;;;;9167486;19;20006;-69
2023/10/08 12:49:20;;;;;;;4.57;1.30;;;19.10;74.40;;;;;;9166954;19;20019;-64
2023/10/08 12:52:29;;;;;;;5.68;1.50;;;19.10;74.30;;;;;;9167793;19;20015;-68
2023/10/08 12:55:39;;;;;;;8.55;2.05;;;19.10;74.00;;;;;;9167506;19;20014;-65
2023/10/08 12:58:48;;;;;;;5.20;1.80;;;19.10;74.00;;;;;;9165752;19;20468;-65
2023/10/08 13:01:56;;;;;;;5.47;2.08;;;19.10;73.90;;;;;;9166551;19;20022;-64
2023/10/08 13:05:02;;;;;;;3.95;1.60;;;19.10;73.90;;;;;;9167430;19;20014;-67
2023/10/08 13:08:13;;;;;;;11.73;1.98;;;19.10;73.70;;;;;;9167461;19;20480;-69
2023/10/08 13:11:22;;;;;;;5.38;1.50;;;19.10;73.60;;;;;;9165998;19;20035;-64
2023/10/08 13:14:29;;;;;;;9.25;1.95;;;19.10;73.60;;;;;;9167044;19;20440;-65
2023/10/08 13:17:35;;;;;;;5.70;2.00;;;19.10;73.60;;;;;;9167580;19;20047;-68
2023/10/08 13:20:44;;;;;;;8.82;1.77;;;19.00;73.50;;;;;;9166252;19;20010;-68
2023/10/08 13:23:53;;;;;;;6.18;1.45;;;19.00;73.60;;;;;;9165027;19;20018;-67
2023/10/08 13:27:00;;;;;;;4.53;1.88;;;19.00;73.50;;;;;;9163997;19;20904;-68
2023/10/08 13:30:08;;;;;;;3.60;1.60;;;18.90;73.50;;;;;;9165646;19;20014;-66
2023/10/08 13:33:16;;;;;;;5.53;1.65;;;18.90;73.60;;;;;;9166719;19;20427;-70
2023/10/08 13:36:23;;;;;;;7.88;1.83;;;18.90;73.60;;;;;;9160923;19;20114;-71
2023/10/08 13:39:35;;;;;;;8.77;2.50;;;18.90;73.60;;;;;;9165565;19;20021;-66
2023/10/08 13:42:41;;;;;;;5.43;2.00;;;18.90;73.50;;;;;;9171775;19;20026;-67
2023/10/08 13:45:48;;;;;;;2.80;1.20;;;18.80;73.50;;;;;;9181776;19;20337;-66
2023/10/08 13:48:54;;;;;;;7.03;1.60;;;18.80;73.40;;;;;;9184869;19;20114;-66
2023/10/08 13:52:01;;;;;;;3.63;1.60;;;18.80;73.40;;;;;;9183558;19;20025;-67
2023/10/08 13:55:13;;;;;;;6.25;1.33;;;18.80;73.40;;;;;;9184198;19;20021;-67
2023/10/08 13:58:22;;;;;;;;;;;18.80;73.30;;;;;;9184288;19;20071;-64
2023/10/08 14:01:27;;;;;;;6.65;1.58;;;18.80;73.60;;;;;;9181482;19;19919;-65
2023/10/08 14:04:39;;;;;;;3.90;1.38;;;18.70;73.60;;;;;;9183626;19;20006;-66
2023/10/08 14:07:48;;;;;;;3.22;1.55;;;18.70;73.50;;;;;;9183524;19;20010;-67
2023/10/08 14:11:02;;;;;;;3.15;1.30;;;18.70;73.50;;;;;;9183520;19;20013;-65
2023/10/08 14:14:11;;;;;;;7.03;1.50;;;18.70;73.40;;;;;;9180769;19;20061;-68
2023/10/08 14:17:39;;;;;;;8.68;2.53;;;18.70;73.40;;;;;;9183397;19;20022;-66
2023/10/08 14:20:46;;;;;;;6.32;1.83;;;18.60;73.40;;;;;;9180293;19;20870;-66
2023/10/08 14:23:56;;;;;;;6.53;1.70;;;18.70;73.50;;;;;;9183307;19;20037;-66
2023/10/08 14:27:09;;;;;;;4.22;1.52;;;18.70;73.50;;;;;;9182222;19;20014;-64
2023/10/08 14:30:21;;;;;;;3.47;1.45;;;18.60;73.30;;;;;;9181549;19;20018;-69
2023/10/08 14:33:31;;;;;;;5.30;1.50;;;18.60;73.30;;;;;;9181372;19;20362;-64
2023/10/08 14:43:23;;;;;;;7.45;2.50;;;18.60;73.30;;;;;;9183472;19;20022;-64
2023/10/08 14:46:30;;;;;;;8.88;2.22;;;18.60;73.30;;;;;;9182786;19;20060;-67
2023/10/08 14:49:38;;;;;;;8.35;2.42;;;18.60;73.30;;;;;;9181180;19;20018;-68
2023/10/08 14:52:43;;;;;;;6.47;2.08;;;18.60;73.40;;;;;;9179801;19;20025;-66
2023/10/08 14:55:51;;;;;;;4.65;1.73;;;18.60;73.40;;;;;;9169602;19;20981;-71
2023/10/08 14:59:00;;;;;;;5.97;1.60;;;18.60;73.40;;;;;;9173271;19;20453;-65
2023/10/08 15:02:07;;;;;;;5.80;1.92;;;18.50;73.30;;;;;;9170146;19;20030;-69
2023/10/08 15:05:14;;;;;;;6.53;1.75;;;18.50;73.30;;;;;;9170925;19;20003;-66
2023/10/08 15:08:22;;;;;;;9.00;1.98;;;18.50;73.40;;;;;;9168711;19;20484;-68
2023/10/08 15:11:30;;;;;;;6.53;1.80;;;18.50;73.40;;;;;;9170367;19;20044;-68
2023/10/08 15:14:42;;;;;;;6.30;1.58;;;18.50;73.50;;;;;;9171949;19;20023;-69
2023/10/08 15:17:49;;;;;;;5.53;1.40;;;18.40;73.50;;;;;;9170952;19;20023;-69
2023/10/08 15:20:57;;;;;;;4.07;1.50;;;18.40;73.50;;;;;;9168902;19;20015;-67
2023/10/08 15:24:10;;;;;;;3.22;1.30;;;18.40;73.60;;;;;;9170817;19;20390;-67
2023/10/08 15:27:17;;;;;;;7.50;1.40;;;18.40;73.60;;;;;;9158053;19;20014;-66
2023/10/08 15:30:25;;;;;;;5.93;1.65;;;18.40;73.50;;;;;;9171985;19;20542;-66
2023/10/08 15:33:33;;;;;;;8.43;1.50;;;18.40;73.40;;;;;;9171092;19;20030;-66
2023/10/08 15:36:38;;;;;;;5.53;1.13;;;18.40;73.50;;;;;;9168467;19;20032;-70
2023/10/08 15:39:46;;;;;;;5.70;1.63;;;18.30;73.40;;;;;;9172298;19;20420;-66
2023/10/08 15:42:53;;;;;;;3.92;1.80;;;18.30;73.40;;;;;;9167632;19;20048;-71
2023/10/08 15:46:05;;;;;;;5.78;1.88;;;18.30;73.50;;;;;;9162026;19;20025;-63
2023/10/08 15:49:12;;;;;;;7.35;1.92;;;18.30;73.50;;;;;;9168108;19;20025;-66
2023/10/08 15:52:20;;;;;;;5.95;1.45;;;18.30;73.60;;;;;;9170377;19;20030;-70
2023/10/08 15:55:25;;;;;;;5.13;1.75;;;18.20;73.60;;;;;;9170321;19;20021;-64
2023/10/08 15:58:33;;;;;;;3.00;1.50;;;18.30;73.70;;;;;;9172559;19;20014;-67
2023/10/08 16:01:43;;;;;;;4.15;1.80;;;18.20;73.60;;;;;;9162154;19;20046;-64
2023/10/08 16:04:50;;;;;;;4.93;1.83;;;18.20;73.70;;;;;;9159606;19;20026;-66
2023/10/08 16:07:58;;;;;;;5.00;1.38;;;18.10;73.70;;;;;;9162491;19;20086;-64
2023/10/08 16:11:06;;;;;;;8.07;1.35;;;18.10;73.80;;;;;;9164842;19;20014;-71
2023/10/08 16:14:11;;;;;;;5.88;1.80;;;18.10;73.80;;;;;;9160674;19;20014;-66
2023/10/08 16:17:21;;;;;;;5.85;1.23;;;18.10;73.90;;;;;;9163167;19;20022;-70
2023/10/08 16:20:28;;;;;;;3.38;1.60;;;18.00;73.80;;;;;;9156696;19;20023;-70
2023/10/08 16:23:35;;;;;;;5.72;1.40;;;18.00;73.80;;;;;;9163413;19;20022;-68
2023/10/08 16:26:41;;;;;;;4.38;1.40;;;18.00;73.90;;;;;;9163191;19;20022;-66
2023/10/08 16:29:49;;;;;;;5.75;1.63;;;17.90;73.90;;;;;;9164299;19;20014;-65
2023/10/08 16:32:58;;;;;;;2.85;1.40;;;17.90;74.00;;;;;;9164492;19;20456;-66
2023/10/08 16:36:09;;;;;;;6.30;1.75;;;17.90;73.90;;;;;;9162641;19;20015;-64
2023/10/08 16:39:17;;;;;;;5.30;1.73;;;17.80;74.70;;;;;;9161246;19;20026;-69
2023/10/08 16:42:26;;;;;;;5.57;1.95;;;17.80;74.00;;;;;;9160199;19;20010;-64
2023/10/08 16:45:32;;;;;;;5.18;1.60;;;17.80;74.10;;;;;;9162146;19;20035;-64
2023/10/08 16:48:44;;;;;;;7.82;1.85;;;17.80;74.10;;;;;;9161864;19;20014;-68
2023/10/08 16:51:49;;;;;;;10.30;2.30;;;17.70;74.10;;;;;;9163535;19;20011;-68
2023/10/08 16:54:57;;;;;;;6.90;1.77;;;17.70;74.10;;;;;;9162995;19;20799;-65
2023/10/08 16:58:02;;;;;;;8.80;2.20;;;17.60;74.10;;;;;;9163023;19;20015;-67
2023/10/08 17:01:10;;;;;;;8.68;2.28;;;17.60;74.20;;;;;;9157968;19;20021;-69